メインページ
METAR-TAF:

METAR-TAF

空港 :

ワシントン州, バージニア州, アメリカ合衆国

ワシントン・ダレス国際空港

緯度: 38-56-05N, 経度: 077-26-51W, 海抜: 95m

現時点の気象観測

当レポートは30分前の12:52(UTC)に作成
無風
気温 23°C
湿度 89%
気圧 1018 hPa
視程: 14.5km
高度25000ftの雲はほとんどない

METAR: KIAD 251252Z 00000KT 9SM FEW250 23/21 A3007 RMK AO2 SLP181 T02280206

時間: 09:22 (13:22 UTC)

予報

当レポートは1時間54分前の11:28(UTC)に作成
予報は25日の 12時(UTC)から 26日の 18時(UTC)まで有効
変向風 3kt
視程: 10km
高度25000ftの雲はほとんどない
25日の 2000時(UTC)から
の風 7kt
視程: 10km
高度6000ftの雲はほとんどない
高度25000ftの雲は散在している
26日の 0400時(UTC)から
変向風 3kt
視程: 10km
高度4500ftの雲はほとんどない
高度25000ftの雲は散在している

TAF: KIAD 251128Z 2512/2618 VRB03KT P6SM FEW250 FM252000 08007KT P6SM FEW060 SCT250 FM260400 VRB03KT P6SM FEW045 SCT250

4,000以上の空港の気象観測と天気予報(METAR報とTAF報)

利用可能な観測所は地図上に黄色い丸と赤い丸で示す。

丸の上にカーソルを重ねると観測所名を参照できる。

次にクリックすると気象観測と天気予報を参照できる。

マップの切り替え:黒色「×」印の緑ボタンをクリックして拡大、「-」印の緑ボタンをクリックして縮小、緑色の三角印をクリックして隣りの地図に切り替え


METAR-TAF: